Time;durP1;ratioP1;P1;durP2;ratioP2;P2;SDS_P1;SDS_P2;PMS_P1;PMS_P2;Temp;Humidity;BMP_temperature;BMP_pressure;BME280_temperature;BME280_humidity;BME280_pressure;Samples;Min_cycle;Max_cycle;Signal;HPM_P1;HPM_P2
2023/01/05 00:01:13;;;;;;;28.38;4.88;;;10.90;99.90;;;;;;5034338;28;20017;-85
2023/01/05 00:03:39;;;;;;;23.08;4.18;;;10.80;99.90;;;;;;5034891;28;20025;-83
2023/01/05 00:06:10;;;;;;;22.15;4.30;;;10.80;99.90;;;;;;5037212;28;20079;-85
2023/01/05 00:08:36;;;;;;;24.27;4.50;;;10.80;99.90;;;;;;5036294;28;20075;-84
2023/01/05 00:24:51;;;;;;;21.58;4.15;;;10.50;99.90;;;;;;5046016;28;20609;-83
2023/01/05 00:27:17;;;;;;;23.30;4.43;;;10.40;99.90;;;;;;5034748;28;20049;-83
2023/01/05 00:29:43;;;;;;;26.58;4.80;;;10.40;99.90;;;;;;5052889;28;20033;-83
2023/01/05 00:32:08;;;;;;;26.80;5.38;;;10.40;99.90;;;;;;5052955;28;20017;-84
2023/01/05 00:34:34;;;;;;;25.27;5.53;;;10.30;99.90;;;;;;5034571;28;20025;-83
2023/01/05 00:36:59;;;;;;;21.63;4.82;;;10.30;99.90;;;;;;5035075;28;20462;-83
2023/01/05 00:39:25;;;;;;;27.20;4.80;;;10.30;99.90;;;;;;5035021;28;20123;-84
2023/01/05 00:41:50;;;;;;;19.55;4.28;;;10.20;99.90;;;;;;5034796;28;20025;-84
2023/01/05 00:44:16;;;;;;;25.70;5.30;;;10.20;99.90;;;;;;5036600;28;20395;-85
2023/01/05 00:46:42;;;;;;;19.40;4.10;;;10.20;99.90;;;;;;5030925;28;20017;-83
2023/01/05 00:49:07;;;;;;;25.02;4.63;;;10.10;99.90;;;;;;5032949;28;20025;-84
2023/01/05 00:51:33;;;;;;;24.35;5.18;;;10.10;99.90;;;;;;5027929;28;20025;-83
2023/01/05 00:53:58;;;;;;;26.08;5.63;;;10.00;99.90;;;;;;5014835;28;20396;-83
2023/01/05 00:56:24;;;;;;;33.67;5.28;;;10.00;99.90;;;;;;5032706;28;20029;-81
2023/01/05 00:58:53;;;;;;;19.45;4.50;;;10.00;99.90;;;;;;5030960;28;20080;-82
2023/01/05 01:01:19;;;;;;;21.00;4.75;;;10.00;99.90;;;;;;5051895;28;20036;-82
2023/01/05 01:03:44;;;;;;;35.97;7.05;;;9.90;99.90;;;;;;5052321;28;20029;-81
2023/01/05 01:06:10;;;;;;;25.23;5.82;;;9.90;99.90;;;;;;5052058;28;20025;-83
2023/01/05 01:08:35;;;;;;;25.15;3.95;;;9.90;99.90;;;;;;5052430;28;20078;-85
2023/01/05 01:11:05;;;;;;;26.73;4.78;;;9.90;99.90;;;;;;5052446;28;20043;-83
2023/01/05 01:13:31;;;;;;;24.05;5.25;;;9.90;99.90;;;;;;5034610;28;20115;-82
2023/01/05 01:15:57;;;;;;;26.77;5.18;;;9.90;99.90;;;;;;5052342;28;20039;-82
2023/01/05 01:18:23;;;;;;;24.90;4.80;;;10.00;99.90;;;;;;5052026;28;20044;-83
2023/01/05 01:20:48;;;;;;;25.35;5.20;;;9.90;99.90;;;;;;5034216;28;20062;-83
2023/01/05 01:23:14;;;;;;;27.73;5.68;;;10.00;99.90;;;;;;5034214;28;20475;-83
2023/01/05 01:25:40;;;;;;;25.60;5.40;;;10.00;99.90;;;;;;5051826;28;20029;-83
2023/01/05 01:28:05;;;;;;;31.67;6.07;;;10.10;99.90;;;;;;5051829;28;20040;-83
2023/01/05 01:30:31;;;;;;;32.47;6.20;;;10.10;99.90;;;;;;5034331;28;20025;-83
2023/01/05 01:32:56;;;;;;;28.67;6.50;;;10.10;99.90;;;;;;5034106;28;20025;-82
2023/01/05 01:35:22;;;;;;;20.50;4.35;;;10.10;99.90;;;;;;5037339;28;20032;-82
2023/01/05 01:37:48;;;;;;;27.30;5.90;;;10.10;99.90;;;;;;5038114;28;20017;-83
2023/01/05 01:40:13;;;;;;;22.40;4.82;;;10.20;99.90;;;;;;5055846;28;20475;-82
2023/01/05 01:42:40;;;;;;;30.73;5.60;;;10.20;99.90;;;;;;5055888;28;20446;-84
2023/01/05 01:45:26;;;;;;;22.30;4.85;;;10.20;99.90;;;;;;5056059;28;20108;-83
2023/01/05 01:47:56;;;;;;;27.90;5.28;;;10.20;99.90;;;;;;5055471;28;20032;-83
2023/01/05 01:50:33;;;;;;;22.98;6.45;;;10.20;99.90;;;;;;5037754;28;20037;-84
2023/01/05 01:53:15;;;;;;;26.83;4.90;;;10.20;99.90;;;;;;5037828;28;20023;-84
2023/01/05 01:55:42;;;;;;;30.13;5.47;;;10.20;99.90;;;;;;5055383;28;20053;-82
2023/01/05 01:58:12;;;;;;;20.13;5.13;;;10.20;99.90;;;;;;5055603;28;20390;-82
2023/01/05 02:00:39;;;;;;;26.23;6.00;;;10.20;99.90;;;;;;5037788;28;20079;-83
2023/01/05 02:03:05;;;;;;;29.00;5.40;;;10.20;99.90;;;;;;5055699;28;20100;-85
2023/01/05 02:05:32;;;;;;;23.65;4.60;;;10.20;99.90;;;;;;5055523;28;20122;-85
2023/01/05 02:07:58;;;;;;;22.00;5.35;;;10.20;99.90;;;;;;5055641;28;20100;-84
2023/01/05 02:10:32;;;;;;;21.55;4.32;;;10.20;99.90;;;;;;5037712;28;20108;-84
2023/01/05 02:13:30;;;;;;;29.00;6.18;;;10.20;99.90;;;;;;5037498;28;20031;-84
2023/01/05 02:16:07;;;;;;;28.38;5.20;;;10.20;99.90;;;;;;4997389;28;20491;-83
2023/01/05 02:18:48;;;;;;;24.33;5.03;;;10.20;99.90;;;;;;5055551;28;20036;-84
2023/01/05 02:21:50;;;;;;;18.85;4.93;;;10.20;99.90;;;;;;5037434;28;20122;-85
2023/01/05 02:24:59;;;;;;;28.67;5.13;;;10.20;99.90;;;;;;5036695;28;20033;-83
2023/01/05 02:27:37;;;;;;;25.08;4.80;;;10.20;99.90;;;;;;5055711;28;20131;-84
2023/01/05 02:30:15;;;;;;;27.05;4.50;;;10.30;99.90;;;;;;5037301;28;20044;-84
2023/01/05 02:32:55;;;;;;;23.63;4.57;;;10.30;99.90;;;;;;5054375;28;20383;-84
2023/01/05 02:35:43;;;;;;;29.23;5.03;;;10.30;99.90;;;;;;5037350;28;20047;-83
2023/01/05 02:38:35;;;;;;;19.25;4.53;;;10.30;99.90;;;;;;5055133;28;20021;-84
2023/01/05 02:41:17;;;;;;;25.33;5.82;;;10.30;99.90;;;;;;5037037;28;20405;-86
2023/01/05 02:43:44;;;;;;;20.95;4.13;;;10.30;99.90;;;;;;5054929;28;20025;-84
2023/01/05 02:46:10;;;;;;;24.27;4.65;;;10.30;99.90;;;;;;5054918;28;20129;-84
2023/01/05 02:48:37;;;;;;;26.00;5.22;;;10.40;99.90;;;;;;5036926;28;20474;-85
2023/01/05 02:51:06;;;;;;;26.25;4.60;;;10.30;99.90;;;;;;5054952;28;20025;-86
2023/01/05 02:54:00;;;;;;;25.80;5.78;;;10.40;99.90;;;;;;5054501;28;20017;-83
2023/01/05 02:56:35;;;;;;;32.00;4.43;;;10.40;99.90;;;;;;5055090;28;20087;-82
2023/01/05 02:59:16;;;;;;;24.88;4.15;;;10.40;99.90;;;;;;5054477;28;20053;-84
2023/01/05 03:01:50;;;;;;;25.48;5.10;;;10.40;99.90;;;;;;5036602;28;20021;-86
2023/01/05 03:04:21;;;;;;;20.88;4.68;;;10.40;99.90;;;;;;5053532;28;20028;-83
2023/01/05 03:06:57;;;;;;;25.35;5.50;;;10.40;99.90;;;;;;5054702;28;20052;-84
2023/01/05 03:09:27;;;;;;;26.65;5.43;;;10.50;99.90;;;;;;5036815;28;20066;-83
2023/01/05 03:15:19;;;;;;;24.73;5.22;;;10.50;99.90;;;;;;5054774;28;20041;-83
2023/01/05 03:18:19;;;;;;;27.70;5.00;;;10.50;99.90;;;;;;5036421;28;20483;-84
2023/01/05 03:20:49;;;;;;;25.85;5.07;;;10.50;99.90;;;;;;5010098;28;20045;-84
2023/01/05 03:37:45;;;;;;;26.90;5.32;;;10.40;99.90;;;;;;5054313;28;20187;-84
2023/01/05 03:40:21;;;;;;;25.73;5.38;;;10.40;99.90;;;;;;5054252;28;20112;-83
2023/01/05 03:42:47;;;;;;;19.65;3.97;;;10.40;99.90;;;;;;5035885;28;20029;-85
2023/01/05 03:45:15;;;;;;;26.90;4.93;;;10.40;99.90;;;;;;5053833;28;20025;-84
2023/01/05 03:47:40;;;;;;;22.55;4.60;;;10.40;99.90;;;;;;5036011;28;20036;-84
2023/01/05 03:50:07;;;;;;;26.33;3.67;;;10.40;99.90;;;;;;5036083;28;20029;-84
2023/01/05 03:52:32;;;;;;;28.40;4.07;;;10.40;99.90;;;;;;5035907;28;20044;-83
2023/01/05 03:54:58;;;;;;;22.15;4.53;;;10.40;99.90;;;;;;5035645;28;20059;-84
2023/01/05 03:57:23;;;;;;;27.33;5.22;;;10.40;99.90;;;;;;5053325;28;20029;-83
2023/01/05 03:59:49;;;;;;;26.10;4.50;;;10.40;99.90;;;;;;5035631;28;20037;-84
2023/01/05 04:02:15;;;;;;;24.40;4.47;;;10.40;99.90;;;;;;5053652;28;20367;-85
2023/01/05 04:04:40;;;;;;;29.90;5.38;;;10.40;99.90;;;;;;5053513;28;20040;-84
2023/01/05 04:07:06;;;;;;;24.75;4.40;;;10.30;99.90;;;;;;5053611;28;20025;-84
2023/01/05 04:09:32;;;;;;;26.25;5.10;;;10.40;99.90;;;;;;5053364;28;20071;-85
2023/01/05 04:11:59;;;;;;;28.83;4.60;;;10.40;99.90;;;;;;5053368;28;20024;-85
2023/01/05 04:14:24;;;;;;;24.33;5.47;;;10.40;99.90;;;;;;5053184;28;20490;-84
2023/01/05 04:16:50;;;;;;;23.42;4.15;;;10.40;99.90;;;;;;5053299;28;20029;-85
2023/01/05 04:19:15;;;;;;;22.67;4.80;;;10.40;99.90;;;;;;5053149;28;20037;-84
2023/01/05 04:21:41;;;;;;;31.02;5.32;;;10.40;99.90;;;;;;5053073;28;20028;-84
2023/01/05 04:24:09;;;;;;;30.48;5.72;;;10.40;99.90;;;;;;5053140;28;20032;-83
2023/01/05 04:26:36;;;;;;;19.90;4.20;;;10.40;99.90;;;;;;5035120;28;20029;-84
2023/01/05 04:29:03;;;;;;;30.60;4.57;;;10.40;99.90;;;;;;5052911;28;20577;-83
2023/01/05 04:31:28;;;;;;;23.02;4.90;;;10.40;99.90;;;;;;5035680;28;20475;-84
2023/01/05 04:33:54;;;;;;;25.63;4.18;;;10.40;99.90;;;;;;5053016;28;20064;-85
2023/01/05 04:36:20;;;;;;;24.83;5.40;;;10.40;99.90;;;;;;5052820;28;20120;-85
2023/01/05 04:38:45;;;;;;;15.70;3.55;;;10.40;99.90;;;;;;5034871;28;20040;-84
2023/01/05 04:41:11;;;;;;;17.17;3.80;;;10.40;99.90;;;;;;5035137;28;20013;-85
2023/01/05 04:43:36;;;;;;;31.13;4.68;;;10.40;99.90;;;;;;5052597;28;20033;-85
2023/01/05 04:46:02;;;;;;;19.90;3.38;;;10.50;99.90;;;;;;5035000;28;20020;-83
2023/01/05 04:48:28;;;;;;;17.63;4.40;;;10.40;99.90;;;;;;5035057;28;20024;-83
2023/01/05 04:50:54;;;;;;;28.92;4.95;;;10.40;99.90;;;;;;5034869;28;20020;-83
2023/01/05 04:53:22;;;;;;;27.95;4.72;;;10.30;99.90;;;;;;5034127;28;20115;-84
2023/01/05 04:55:47;;;;;;;29.23;4.65;;;10.30;99.90;;;;;;5051059;28;20082;-83
2023/01/05 04:58:13;;;;;;;23.35;4.20;;;10.40;99.90;;;;;;5052258;28;20049;-84
2023/01/05 05:00:38;;;;;;;22.33;4.25;;;10.40;99.90;;;;;;5034613;28;20052;-84
2023/01/05 05:03:04;;;;;;;23.67;4.53;;;10.40;99.90;;;;;;5034665;28;20017;-83
2023/01/05 05:05:30;;;;;;;19.85;3.47;;;10.30;99.90;;;;;;5052059;28;20021;-83
2023/01/05 05:07:55;;;;;;;28.90;4.20;;;10.30;99.90;;;;;;5051812;28;20482;-84
2023/01/05 05:10:21;;;;;;;20.27;4.75;;;10.20;99.90;;;;;;5033923;28;20025;-83
2023/01/05 05:12:46;;;;;;;20.13;4.07;;;10.10;99.90;;;;;;5052488;28;20032;-84
2023/01/05 05:15:12;;;;;;;23.73;4.82;;;10.10;99.90;;;;;;5034317;28;20033;-84
2023/01/05 05:17:38;;;;;;;16.85;3.72;;;10.10;99.90;;;;;;5052150;28;20471;-85
2023/01/05 05:20:04;;;;;;;20.35;4.15;;;10.20;99.90;;;;;;5052002;28;20447;-84
2023/01/05 05:22:30;;;;;;;23.23;4.47;;;10.20;99.90;;;;;;5034404;28;20387;-84
2023/01/05 05:24:55;;;;;;;16.05;3.70;;;10.30;99.90;;;;;;5034560;28;20033;-83
2023/01/05 05:27:21;;;;;;;18.23;4.28;;;10.30;99.90;;;;;;5034087;28;20053;-83
2023/01/05 05:29:47;;;;;;;16.83;2.88;;;10.40;99.90;;;;;;5052132;28;20039;-84
2023/01/05 05:32:12;;;;;;;20.65;4.47;;;10.40;99.90;;;;;;5034343;28;20028;-84
2023/01/05 05:34:38;;;;;;;24.35;5.57;;;10.40;99.90;;;;;;5033900;28;20032;-84
2023/01/05 05:37:03;;;;;;;22.90;3.90;;;10.40;99.90;;;;;;5034130;28;20098;-83
2023/01/05 05:39:29;;;;;;;20.60;4.90;;;10.50;99.90;;;;;;5052553;28;20032;-84
2023/01/05 05:41:55;;;;;;;24.50;4.38;;;10.40;99.90;;;;;;5031307;28;20135;-85
2023/01/05 05:44:20;;;;;;;24.77;4.15;;;10.50;99.90;;;;;;5049525;28;20036;-87
2023/01/05 05:46:46;;;;;;;21.33;4.57;;;10.50;99.90;;;;;;5031978;28;20021;-84
2023/01/05 05:49:11;;;;;;;20.30;3.90;;;10.50;99.90;;;;;;5049345;28;20110;-84
2023/01/05 05:51:37;;;;;;;21.08;3.55;;;10.50;99.90;;;;;;5031172;28;20021;-84
2023/01/05 05:54:03;;;;;;;17.95;4.13;;;10.50;99.90;;;;;;5049061;28;20025;-84
2023/01/05 05:56:29;;;;;;;19.13;4.28;;;10.50;99.90;;;;;;5049268;28;20104;-84
2023/01/05 05:58:55;;;;;;;25.85;4.35;;;10.50;99.90;;;;;;5048472;28;20479;-84
2023/01/05 06:01:20;;;;;;;26.60;4.25;;;10.50;99.90;;;;;;5049393;28;20465;-83
2023/01/05 06:03:46;;;;;;;21.52;4.80;;;10.50;99.90;;;;;;5031337;28;20061;-84
2023/01/05 06:06:11;;;;;;;20.95;4.43;;;10.50;99.90;;;;;;5049569;28;20026;-86
2023/01/05 06:08:37;;;;;;;27.23;5.40;;;10.50;99.90;;;;;;5049208;28;20028;-85
2023/01/05 06:11:03;;;;;;;24.52;4.68;;;10.50;99.90;;;;;;5048887;28;20403;-83
2023/01/05 06:13:28;;;;;;;23.73;4.57;;;10.50;99.90;;;;;;5049084;28;20021;-84
2023/01/05 06:15:54;;;;;;;27.83;4.75;;;10.50;99.90;;;;;;5050331;28;20052;-84
2023/01/05 06:18:20;;;;;;;20.33;3.63;;;10.50;99.90;;;;;;5033341;28;20033;-86
2023/01/05 06:20:45;;;;;;;27.58;4.20;;;10.60;99.90;;;;;;5035995;28;20056;-83
2023/01/05 06:23:11;;;;;;;24.60;3.95;;;10.50;99.90;;;;;;5037427;28;20021;-84
2023/01/05 06:25:36;;;;;;;24.40;4.43;;;10.50;99.90;;;;;;5037200;28;20091;-84
2023/01/05 06:28:03;;;;;;;19.10;3.88;;;10.50;99.90;;;;;;5037297;28;20029;-84
2023/01/05 06:30:28;;;;;;;19.58;4.00;;;10.60;99.90;;;;;;5055290;28;20021;-84
2023/01/05 06:32:54;;;;;;;17.75;3.80;;;10.50;99.90;;;;;;5037451;28;20559;-84
2023/01/05 06:35:20;;;;;;;25.98;4.18;;;10.50;99.90;;;;;;5055066;28;20510;-85
2023/01/05 06:37:46;;;;;;;17.42;3.35;;;10.50;99.90;;;;;;5037213;28;20036;-85
2023/01/05 06:40:12;;;;;;;20.73;4.22;;;10.50;99.90;;;;;;5036708;28;20036;-84
2023/01/05 06:42:38;;;;;;;19.13;4.05;;;10.50;99.90;;;;;;5037232;28;20021;-85
2023/01/05 06:45:05;;;;;;;18.48;4.35;;;10.50;99.90;;;;;;5036812;28;20021;-84
2023/01/05 06:47:31;;;;;;;19.90;3.88;;;10.50;99.90;;;;;;5036843;28;20021;-85
2023/01/05 06:49:57;;;;;;;20.50;4.03;;;10.50;99.90;;;;;;5037090;28;20027;-84
2023/01/05 06:52:22;;;;;;;21.75;4.38;;;10.50;99.90;;;;;;5037241;28;20394;-85
2023/01/05 06:54:48;;;;;;;20.42;4.60;;;10.50;99.90;;;;;;5036941;28;20456;-83
2023/01/05 06:57:14;;;;;;;23.88;4.40;;;10.60;99.90;;;;;;5054939;28;20112;-83
2023/01/05 06:59:39;;;;;;;25.67;4.53;;;10.60;99.90;;;;;;5054674;28;20099;-84
2023/01/05 07:02:11;;;;;;;24.45;4.65;;;10.60;99.90;;;;;;5036967;28;20024;-83
2023/01/05 07:04:37;;;;;;;18.83;4.35;;;10.60;99.90;;;;;;5055238;28;20021;-84
2023/01/05 07:07:03;;;;;;;21.73;4.35;;;10.60;99.90;;;;;;5036624;28;20467;-85
2023/01/05 07:09:28;;;;;;;19.33;4.25;;;10.60;99.90;;;;;;5036579;28;20017;-86
2023/01/05 07:11:54;;;;;;;14.50;3.70;;;10.60;99.90;;;;;;5054406;28;20025;-86
2023/01/05 07:14:19;;;;;;;25.17;4.75;;;10.60;99.90;;;;;;5054683;28;20025;-84
2023/01/05 07:16:45;;;;;;;21.13;4.03;;;10.60;99.90;;;;;;5036641;28;20025;-84
2023/01/05 07:19:11;;;;;;;26.85;5.47;;;10.60;99.90;;;;;;5054931;28;20045;-85
2023/01/05 07:21:36;;;;;;;19.33;4.35;;;10.60;99.90;;;;;;5037162;28;20538;-85
2023/01/05 07:24:02;;;;;;;24.75;4.28;;;10.60;99.90;;;;;;5054212;28;20067;-85
2023/01/05 07:26:28;;;;;;;19.98;4.20;;;10.60;99.90;;;;;;5036383;28;20079;-84
2023/01/05 07:28:54;;;;;;;23.38;4.22;;;10.60;99.90;;;;;;5035995;28;20471;-86
2023/01/05 07:31:19;;;;;;;26.17;4.82;;;10.60;99.90;;;;;;5053588;28;20108;-84
2023/01/05 07:33:45;;;;;;;26.30;5.03;;;10.60;99.90;;;;;;5037079;28;20445;-84
2023/01/05 07:36:10;;;;;;;27.85;4.90;;;10.70;99.90;;;;;;5037288;28;20060;-85
2023/01/05 07:38:36;;;;;;;29.10;5.10;;;10.70;99.90;;;;;;5054426;28;20501;-84
2023/01/05 07:41:02;;;;;;;25.92;4.13;;;10.70;99.90;;;;;;5036222;28;20035;-86
2023/01/05 07:43:28;;;;;;;24.25;5.30;;;10.70;99.90;;;;;;5036311;28;20021;-86
2023/01/05 07:45:58;;;;;;;25.40;5.00;;;10.70;99.90;;;;;;5054384;28;20027;-85
2023/01/05 07:48:24;;;;;;;21.25;4.60;;;10.70;99.90;;;;;;5034853;28;20017;-85
2023/01/05 07:50:49;;;;;;;22.08;4.28;;;10.70;99.90;;;;;;5054268;28;20497;-83
2023/01/05 07:53:15;;;;;;;21.67;3.85;;;10.70;99.90;;;;;;5036290;28;20370;-83
2023/01/05 07:55:40;;;;;;;19.73;4.03;;;10.70;99.90;;;;;;5053746;28;20136;-83
2023/01/05 07:58:06;;;;;;;25.92;5.63;;;10.70;99.90;;;;;;5035459;28;20071;-83
2023/01/05 08:00:31;;;;;;;27.17;5.32;;;10.70;99.90;;;;;;5035837;28;20402;-84
2023/01/05 08:02:57;;;;;;;27.38;5.32;;;10.70;99.90;;;;;;5053018;28;20028;-84
2023/01/05 08:05:23;;;;;;;28.95;5.43;;;10.70;99.90;;;;;;5035027;28;20462;-84
2023/01/05 08:07:48;;;;;;;28.58;4.47;;;10.70;99.90;;;;;;5035687;28;20032;-83
2023/01/05 08:10:29;;;;;;;22.15;5.05;;;10.70;99.90;;;;;;5035333;28;20013;-84
2023/01/05 08:15:43;;;;;;;23.55;4.47;;;10.70;99.90;;;;;;5053074;28;20032;-83
2023/01/05 08:18:09;;;;;;;21.13;5.20;;;10.70;99.90;;;;;;5034824;28;20025;-84
2023/01/05 08:20:34;;;;;;;23.83;4.95;;;10.70;99.90;;;;;;5035195;28;20029;-85
2023/01/05 08:23:00;;;;;;;23.40;4.43;;;10.70;99.90;;;;;;5034850;28;20076;-83
2023/01/05 08:25:26;;;;;;;19.75;3.80;;;10.70;99.90;;;;;;5035453;28;20033;-84
2023/01/05 08:27:52;;;;;;;22.63;4.35;;;10.70;99.90;;;;;;5052862;28;20139;-83
2023/01/05 08:30:18;;;;;;;19.95;4.00;;;10.70;99.90;;;;;;5053178;28;20044;-84
2023/01/05 08:32:44;;;;;;;24.63;5.18;;;10.70;99.90;;;;;;5035027;28;20541;-85
2023/01/05 08:35:10;;;;;;;15.18;3.28;;;10.80;99.90;;;;;;5034744;28;20021;-84
2023/01/05 08:37:36;;;;;;;18.20;4.18;;;10.80;99.90;;;;;;5052551;28;20066;-83
2023/01/05 08:40:01;;;;;;;23.25;4.15;;;10.80;99.90;;;;;;5034450;28;20032;-83
2023/01/05 08:42:27;;;;;;;15.63;4.05;;;10.80;99.90;;;;;;5052399;28;20028;-85
2023/01/05 08:44:53;;;;;;;23.33;4.65;;;10.80;99.90;;;;;;5052296;28;20025;-85
2023/01/05 08:47:18;;;;;;;26.63;5.70;;;10.80;99.90;;;;;;5034670;28;20075;-85
2023/01/05 08:49:44;;;;;;;24.10;5.28;;;10.80;99.90;;;;;;5034399;28;20025;-82
2023/01/05 08:52:09;;;;;;;24.75;5.00;;;10.80;99.90;;;;;;5034213;28;20013;-83
2023/01/05 08:54:35;;;;;;;17.98;3.20;;;10.80;99.90;;;;;;5052184;28;20029;-83
2023/01/05 08:57:01;;;;;;;18.00;4.53;;;10.80;99.90;;;;;;5034151;28;20475;-84
2023/01/05 08:59:26;;;;;;;23.45;3.80;;;10.80;99.90;;;;;;5033910;28;20047;-83
2023/01/05 09:01:52;;;;;;;19.25;3.92;;;10.80;99.90;;;;;;5034460;28;20020;-84
2023/01/05 09:04:18;;;;;;;21.35;4.35;;;10.80;99.90;;;;;;5051921;28;20025;-83
2023/01/05 09:06:43;;;;;;;21.90;4.25;;;10.80;99.90;;;;;;5033680;28;20067;-83
2023/01/05 09:09:09;;;;;;;24.10;4.47;;;10.80;99.90;;;;;;5034204;28;20029;-84
2023/01/05 09:11:35;;;;;;;24.08;4.45;;;10.80;99.90;;;;;;5052041;28;20025;-84
2023/01/05 09:14:04;;;;;;;14.93;3.05;;;10.70;99.90;;;;;;5033951;28;20032;-84
2023/01/05 09:16:32;;;;;;;19.45;3.88;;;10.80;99.90;;;;;;5033694;28;20116;-84
2023/01/05 09:18:59;;;;;;;23.15;3.95;;;10.80;99.90;;;;;;5033714;28;20025;-85
2023/01/05 09:21:25;;;;;;;25.13;4.90;;;10.80;99.90;;;;;;5051839;28;20025;-84
2023/01/05 09:23:50;;;;;;;23.75;4.03;;;10.80;99.90;;;;;;5051829;28;20124;-84
2023/01/05 09:26:16;;;;;;;22.38;4.20;;;10.80;99.90;;;;;;5033819;28;20071;-84
2023/01/05 09:28:43;;;;;;;20.23;4.43;;;10.80;99.90;;;;;;5033598;28;20021;-83
2023/01/05 09:31:19;;;;;;;23.73;5.10;;;10.80;99.90;;;;;;5051665;28;20017;-84
2023/01/05 09:33:46;;;;;;;23.00;4.72;;;10.80;99.90;;;;;;5033666;28;20029;-83
2023/01/05 09:36:14;;;;;;;15.85;3.38;;;10.80;99.90;;;;;;5033373;28;20059;-83
2023/01/05 09:38:40;;;;;;;20.65;3.95;;;10.80;99.90;;;;;;5033451;28;20037;-83
2023/01/05 09:41:27;;;;;;;18.85;3.63;;;10.80;99.90;;;;;;5051465;28;20029;-84
2023/01/05 09:43:59;;;;;;;21.45;4.10;;;10.80;99.90;;;;;;5051597;28;20544;-84
2023/01/05 09:46:35;;;;;;;19.98;3.92;;;10.80;99.90;;;;;;5033332;28;20021;-84
2023/01/05 09:49:05;;;;;;;17.98;2.97;;;10.90;99.90;;;;;;5033285;28;20128;-83
2023/01/05 09:51:32;;;;;;;25.63;3.88;;;10.90;99.90;;;;;;5033659;28;20107;-83
2023/01/05 09:53:59;;;;;;;24.63;3.67;;;10.90;99.90;;;;;;5033708;28;20425;-83
2023/01/05 09:56:33;;;;;;;17.77;3.42;;;11.00;99.90;;;;;;5036683;28;20359;-84
2023/01/05 09:59:04;;;;;;;17.42;3.58;;;11.00;99.90;;;;;;5037205;28;20040;-86
2023/01/05 10:01:32;;;;;;;23.80;4.05;;;11.00;99.90;;;;;;5055229;28;20033;-83
2023/01/05 10:04:02;;;;;;;24.58;4.07;;;11.00;99.90;;;;;;5037625;28;20024;-85
2023/01/05 10:06:33;;;;;;;22.48;4.22;;;11.00;99.90;;;;;;5037286;28;20021;-83
2023/01/05 10:09:01;;;;;;;13.68;3.58;;;11.00;99.90;;;;;;5055097;28;20094;-83
2023/01/05 10:14:33;;;;;;;19.77;4.60;;;11.00;99.90;;;;;;5055287;28;20052;-84
2023/01/05 10:16:58;;;;;;;26.95;5.05;;;11.00;99.90;;;;;;5037007;28;20021;-83
2023/01/05 10:19:24;;;;;;;19.90;3.70;;;11.00;99.90;;;;;;5037128;28;20025;-83
2023/01/05 10:21:58;;;;;;;18.25;4.00;;;11.00;99.90;;;;;;5036890;28;20066;-84
2023/01/05 10:24:42;;;;;;;20.80;4.43;;;11.00;99.90;;;;;;5036867;28;20021;-84
2023/01/05 10:27:18;;;;;;;26.08;4.97;;;11.00;99.90;;;;;;5054698;28;20037;-83
2023/01/05 10:29:46;;;;;;;15.57;4.00;;;11.00;99.90;;;;;;5054840;28;20025;-81
2023/01/05 10:32:44;;;;;;;21.88;4.05;;;11.00;99.90;;;;;;5036829;28;20032;-84
2023/01/05 10:35:19;;;;;;;30.13;4.72;;;11.00;99.90;;;;;;5054483;28;20025;-85
2023/01/05 10:38:12;;;;;;;22.00;4.50;;;11.00;99.90;;;;;;5054670;28;20489;-83
2023/01/05 10:40:53;;;;;;;18.67;3.93;;;11.00;99.90;;;;;;5017140;28;20049;-83
2023/01/05 10:43:37;;;;;;;18.40;3.80;;;11.00;99.90;;;;;;5034586;28;20280;-83
2023/01/05 10:46:06;;;;;;;24.42;4.63;;;11.00;99.90;;;;;;5034535;28;20083;-81
2023/01/05 10:48:34;;;;;;;17.83;4.75;;;11.00;99.90;;;;;;5016669;28;20112;-83
2023/01/05 10:51:00;;;;;;;20.58;3.97;;;11.00;99.90;;;;;;5016785;28;20495;-83
2023/01/05 10:53:28;;;;;;;17.88;3.20;;;11.00;99.90;;;;;;5016843;28;20471;-82
2023/01/05 10:56:02;;;;;;;22.00;4.18;;;11.10;99.90;;;;;;5016539;28;20032;-82
2023/01/05 10:58:39;;;;;;;18.45;3.92;;;11.10;99.90;;;;;;5016324;28;20041;-83
2023/01/05 11:01:29;;;;;;;21.10;4.10;;;11.10;99.90;;;;;;5016523;28;20548;-83
2023/01/05 11:04:04;;;;;;;22.88;4.85;;;11.10;99.90;;;;;;5016429;28;20014;-84
2023/01/05 11:06:33;;;;;;;20.83;4.20;;;11.10;99.90;;;;;;5034305;28;20029;-84
2023/01/05 11:09:18;;;;;;;21.33;4.32;;;11.10;99.90;;;;;;5015883;28;20017;-84
2023/01/05 11:11:53;;;;;;;27.08;4.40;;;11.20;99.90;;;;;;5016380;28;20026;-84
2023/01/05 11:14:20;;;;;;;19.85;3.65;;;11.20;99.90;;;;;;5016054;28;20108;-84
2023/01/05 11:16:52;;;;;;;17.80;3.92;;;11.20;99.90;;;;;;5033143;28;20088;-84
2023/01/05 11:19:24;;;;;;;16.75;3.80;;;11.20;99.90;;;;;;5003162;28;20044;-82
2023/01/05 11:21:52;;;;;;;19.45;4.43;;;11.30;99.90;;;;;;5053181;28;20036;-87
2023/01/05 11:24:32;;;;;;;19.00;4.25;;;11.30;99.90;;;;;;5015999;28;20025;-83
2023/01/05 11:27:21;;;;;;;22.67;4.45;;;11.40;99.90;;;;;;5035785;28;20025;-84
2023/01/05 11:30:17;;;;;;;23.73;4.65;;;11.30;99.90;;;;;;5019612;28;20025;-84
2023/01/05 11:32:44;;;;;;;23.98;5.05;;;11.40;99.90;;;;;;5034602;28;20059;-83
2023/01/05 11:35:21;;;;;;;20.13;4.60;;;11.40;99.90;;;;;;5051403;28;20032;-85
2023/01/05 11:37:47;;;;;;;21.33;4.68;;;11.50;99.90;;;;;;5032441;28;20017;-85
2023/01/05 11:40:16;;;;;;;29.23;5.63;;;11.60;99.90;;;;;;5050022;28;20817;-84
2023/01/05 11:42:43;;;;;;;34.22;5.32;;;11.70;99.90;;;;;;5048000;28;20021;-84
2023/01/05 11:45:20;;;;;;;28.63;4.80;;;11.80;99.90;;;;;;5032235;28;20025;-84
2023/01/05 11:47:58;;;;;;;23.45;4.97;;;12.20;99.90;;;;;;5032362;28;20033;-83
2023/01/05 11:50:27;;;;;;;23.77;5.47;;;12.30;99.90;;;;;;5049771;28;20169;-84
2023/01/05 11:52:55;;;;;;;30.65;6.90;;;12.40;99.90;;;;;;5031723;28;20108;-84
2023/01/05 11:55:32;;;;;;;29.17;5.63;;;12.40;99.90;;;;;;5033188;28;20478;-84
2023/01/05 11:58:13;;;;;;;28.15;6.00;;;12.40;99.90;;;;;;5033488;28;20078;-83
2023/01/05 12:00:57;;;;;;;31.67;6.18;;;12.30;99.90;;;;;;5033645;28;20032;-83
2023/01/05 12:03:57;;;;;;;24.02;5.95;;;12.30;99.90;;;;;;5051656;28;20029;-83
2023/01/05 12:06:52;;;;;;;22.17;5.25;;;12.30;99.90;;;;;;5041972;28;20028;-83
2023/01/05 12:09:36;;;;;;;18.23;5.13;;;12.30;99.90;;;;;;5021373;28;20037;-83
2023/01/05 12:12:15;;;;;;;29.25;5.78;;;12.30;99.90;;;;;;5036128;28;20075;-83
2023/01/05 12:15:02;;;;;;;27.88;5.97;;;12.30;99.90;;;;;;5052578;28;20509;-84
2023/01/05 12:17:51;;;;;;;23.17;5.70;;;12.30;99.90;;;;;;5051826;28;20036;-84
2023/01/05 12:20:26;;;;;;;32.72;6.28;;;12.30;99.90;;;;;;5020212;28;20123;-85
2023/01/05 12:23:03;;;;;;;24.90;5.60;;;12.30;99.90;;;;;;5034440;28;20025;-87
2023/01/05 12:25:47;;;;;;;21.95;5.65;;;12.40;99.90;;;;;;5029840;28;20021;-86
2023/01/05 12:28:45;;;;;;;27.02;6.18;;;12.60;99.90;;;;;;5037531;28;20048;-85
2023/01/05 12:31:32;;;;;;;19.00;4.38;;;12.70;99.90;;;;;;5023494;28;20416;-83
2023/01/05 12:34:10;;;;;;;25.48;4.45;;;12.70;99.90;;;;;;5033637;28;20467;-84
2023/01/05 12:36:38;;;;;;;19.38;4.75;;;12.80;99.90;;;;;;5033859;28;20453;-84
2023/01/05 12:39:19;;;;;;;23.80;5.47;;;12.80;99.90;;;;;;5033365;28;20098;-83
2023/01/05 12:41:59;;;;;;;26.80;5.90;;;12.70;99.90;;;;;;5033467;28;20024;-83
2023/01/05 12:44:46;;;;;;;21.92;5.63;;;12.70;99.90;;;;;;5037224;28;20498;-83
2023/01/05 12:47:53;;;;;;;21.38;5.78;;;12.80;99.90;;;;;;5026898;28;20029;-82
2023/01/05 12:50:37;;;;;;;17.40;4.97;;;13.00;99.90;;;;;;5005057;28;20025;-82
2023/01/05 12:53:25;;;;;;;;;;;13.10;99.90;;;;;;5047319;28;20028;-83
2023/01/05 12:55:55;;;;;;;22.15;5.85;;;13.20;99.90;;;;;;5031352;28;19912;-82
2023/01/05 12:58:24;;;;;;;17.02;4.15;;;13.20;99.90;;;;;;5050605;28;20037;-83
2023/01/05 13:00:52;;;;;;;19.15;4.30;;;13.10;99.90;;;;;;5032796;28;20119;-83
2023/01/05 13:03:31;;;;;;;21.42;4.78;;;12.90;99.90;;;;;;5033522;28;20023;-84
2023/01/05 13:06:00;;;;;;;21.90;6.03;;;12.80;99.90;;;;;;5051284;28;20507;-82
2023/01/05 13:08:50;;;;;;;22.42;4.32;;;12.60;99.90;;;;;;5036139;28;20387;-83
2023/01/05 13:11:23;;;;;;;20.98;4.57;;;12.50;99.90;;;;;;5026630;28;20108;-82
2023/01/05 13:13:51;;;;;;;;;;;12.40;99.90;;;;;;5033136;28;20119;-84
2023/01/05 13:16:31;;;;;;;17.33;4.20;;;12.20;99.90;;;;;;5032973;28;19905;-83
2023/01/05 13:19:09;;;;;;;22.42;4.75;;;12.20;99.90;;;;;;5024031;28;20032;-84
2023/01/05 13:21:38;;;;;;;26.95;5.47;;;12.30;99.90;;;;;;5051041;28;20346;-82
2023/01/05 13:25:06;;;;;;;24.23;4.90;;;12.30;99.90;;;;;;5026040;28;20052;-83
2023/01/05 13:27:32;;;;;;;27.27;4.53;;;12.30;99.90;;;;;;4932186;29;20154;-84
2023/01/05 13:30:01;;;;;;;16.40;4.22;;;12.30;99.90;;;;;;5040639;28;20037;-85
2023/01/05 13:32:54;;;;;;;28.02;5.38;;;12.30;99.90;;;;;;5055114;28;20056;-83